Time;durP1;ratioP1;P1;durP2;ratioP2;P2;SDS_P1;SDS_P2;PMS_P1;PMS_P2;Temp;Humidity;BMP_temperature;BMP_pressure;BME280_temperature;BME280_humidity;BME280_pressure;Samples;Min_cycle;Max_cycle;Signal;HPM_P1;HPM_P2
2024/01/07 00:01:32;;;;;;;19.40;17.90;;;0.40;99.90;;;;;;5069946;28;20081;-82
2024/01/07 00:03:58;;;;;;;23.80;21.73;;;0.40;99.90;;;;;;5085074;28;20071;-83
2024/01/07 00:06:23;;;;;;;21.17;19.20;;;0.40;99.90;;;;;;5065201;28;20052;-82
2024/01/07 00:08:49;;;;;;;19.08;17.73;;;0.40;99.90;;;;;;5064939;28;20031;-82
2024/01/07 00:11:15;;;;;;;22.83;20.33;;;0.40;99.90;;;;;;5086437;28;20471;-82
2024/01/07 00:13:41;;;;;;;22.75;20.52;;;0.30;99.90;;;;;;5073401;28;20035;-83
2024/01/07 00:16:07;;;;;;;25.50;23.08;;;0.20;99.90;;;;;;5072893;28;20093;-83
2024/01/07 00:18:32;;;;;;;22.85;20.67;;;0.20;99.90;;;;;;5075551;28;20539;-83
2024/01/07 00:20:58;;;;;;;20.55;18.85;;;0.20;99.90;;;;;;5076448;28;20047;-82
2024/01/07 00:23:24;;;;;;;21.85;19.70;;;0.30;99.90;;;;;;5071825;28;20048;-83
2024/01/07 00:25:49;;;;;;;23.90;21.65;;;0.30;99.90;;;;;;5057098;28;20673;-83
2024/01/07 00:28:15;;;;;;;20.98;19.38;;;0.20;99.90;;;;;;5077833;28;20034;-83
2024/01/07 00:30:41;;;;;;;20.92;19.13;;;0.20;99.90;;;;;;5066264;28;20411;-83
2024/01/07 00:33:06;;;;;;;23.98;21.75;;;0.30;99.90;;;;;;5084718;28;20043;-83
2024/01/07 00:35:32;;;;;;;22.15;20.20;;;0.30;99.90;;;;;;5106495;28;20127;-83
2024/01/07 00:37:58;;;;;;;20.13;18.35;;;0.30;99.90;;;;;;5065746;28;20072;-82
2024/01/07 00:40:24;;;;;;;20.10;18.30;;;0.30;99.90;;;;;;5087486;28;20046;-83
2024/01/07 00:42:50;;;;;;;22.27;20.42;;;0.30;99.90;;;;;;5099332;28;20043;-82
2024/01/07 00:45:16;;;;;;;21.05;19.00;;;0.30;99.90;;;;;;5060784;28;20118;-81
2024/01/07 00:47:41;;;;;;;18.08;16.70;;;0.30;99.90;;;;;;5097798;28;20559;-82
2024/01/07 00:50:07;;;;;;;19.02;17.60;;;0.30;99.90;;;;;;5072594;28;20122;-82
2024/01/07 00:52:33;;;;;;;19.38;17.80;;;0.30;99.90;;;;;;5080722;28;20032;-82
2024/01/07 00:54:58;;;;;;;21.30;19.60;;;0.30;99.90;;;;;;5087688;28;20503;-82
2024/01/07 00:57:24;;;;;;;20.63;18.95;;;0.20;99.90;;;;;;5076324;28;20761;-82
2024/01/07 00:59:50;;;;;;;22.45;20.63;;;0.20;99.90;;;;;;5083003;28;20035;-83
2024/01/07 01:02:16;;;;;;;76.15;72.40;;;0.20;99.90;;;;;;5073116;28;20041;-84
2024/01/07 01:04:41;;;;;;;18.65;17.05;;;0.10;99.90;;;;;;5092880;28;20127;-82
2024/01/07 01:07:10;;;;;;;16.63;15.43;;;0.20;99.90;;;;;;5063941;28;20043;-82
2024/01/07 01:09:35;;;;;;;18.23;16.65;;;0.20;99.90;;;;;;5076860;28;20040;-83
2024/01/07 01:12:01;;;;;;;17.75;16.55;;;0.20;99.90;;;;;;5079604;28;20468;-82
2024/01/07 01:14:27;;;;;;;17.30;16.02;;;0.20;99.90;;;;;;5098060;28;20095;-82
2024/01/07 01:16:52;;;;;;;21.23;19.15;;;0.20;99.90;;;;;;5080991;28;20039;-82
2024/01/07 01:19:18;;;;;;;23.42;21.13;;;0.20;99.90;;;;;;5090179;28;20043;-83
2024/01/07 01:21:44;;;;;;;20.75;18.98;;;0.20;99.90;;;;;;5067759;28;20419;-83
2024/01/07 01:24:09;;;;;;;19.67;18.25;;;0.10;99.90;;;;;;5078384;28;20600;-82
2024/01/07 01:26:35;;;;;;;20.70;18.88;;;0.20;99.90;;;;;;5081559;28;20048;-82
2024/01/07 01:29:00;;;;;;;22.33;20.10;;;0.20;99.90;;;;;;5065413;28;20032;-83
2024/01/07 01:31:26;;;;;;;20.92;19.02;;;0.20;99.90;;;;;;5101180;27;20033;-82
2024/01/07 01:33:51;;;;;;;21.23;19.30;;;0.20;99.90;;;;;;5069648;28;20108;-83
2024/01/07 01:36:17;;;;;;;21.10;19.38;;;0.20;99.90;;;;;;5065778;28;20048;-83
2024/01/07 01:38:43;;;;;;;21.13;19.13;;;0.20;99.90;;;;;;5076829;28;20036;-82
2024/01/07 01:41:09;;;;;;;19.83;18.40;;;0.20;99.90;;;;;;5084275;28;20453;-84
2024/01/07 01:43:35;;;;;;;21.98;19.80;;;0.20;99.90;;;;;;5058900;28;20039;-82
2024/01/07 01:46:01;;;;;;;23.17;21.08;;;0.30;99.90;;;;;;5077249;28;20074;-83
2024/01/07 01:48:28;;;;;;;22.63;20.63;;;0.20;99.90;;;;;;5082048;28;20043;-82
2024/01/07 01:50:57;;;;;;;19.38;17.98;;;0.20;99.90;;;;;;5082749;28;20039;-83
2024/01/07 01:53:26;;;;;;;18.30;16.83;;;0.40;99.90;;;;;;5073012;28;20047;-83
2024/01/07 01:55:54;;;;;;;17.65;16.45;;;0.40;99.90;;;;;;5051345;28;20470;-82
2024/01/07 01:58:21;;;;;;;19.15;17.95;;;0.40;99.90;;;;;;5099561;28;20048;-82
2024/01/07 02:00:47;;;;;;;19.85;17.83;;;0.40;99.90;;;;;;5058924;28;20050;-82
2024/01/07 02:03:13;;;;;;;18.35;16.95;;;0.30;99.90;;;;;;5079998;28;20504;-83
2024/01/07 02:05:38;;;;;;;17.45;16.25;;;0.30;99.90;;;;;;5071061;28;20039;-82
2024/01/07 02:08:05;;;;;;;18.00;16.58;;;0.20;99.90;;;;;;5095295;28;20036;-82
2024/01/07 02:10:34;;;;;;;18.92;17.33;;;0.20;99.90;;;;;;5077657;28;20072;-82
2024/01/07 02:13:00;;;;;;;17.55;16.30;;;0.20;99.90;;;;;;5083081;28;20427;-82
2024/01/07 02:15:26;;;;;;;17.83;16.20;;;0.10;99.90;;;;;;5095711;28;20042;-82
2024/01/07 02:17:52;;;;;;;18.75;17.17;;;0.20;99.90;;;;;;5070717;28;20515;-83
2024/01/07 02:20:18;;;;;;;17.08;15.88;;;0.10;99.90;;;;;;5076125;28;20054;-83
2024/01/07 02:22:43;;;;;;;18.02;16.67;;;0.20;99.90;;;;;;5079953;28;20056;-82
2024/01/07 02:25:09;;;;;;;17.15;15.55;;;0.10;99.90;;;;;;5084215;28;20473;-83
2024/01/07 02:27:35;;;;;;;18.10;16.70;;;0.20;99.90;;;;;;5067128;28;20036;-83
2024/01/07 02:30:00;;;;;;;20.80;18.90;;;0.20;99.90;;;;;;5054500;28;20047;-82
2024/01/07 02:32:26;;;;;;;18.92;17.27;;;0.20;99.90;;;;;;5099363;28;20142;-83
2024/01/07 02:34:52;;;;;;;20.27;18.67;;;0.10;99.90;;;;;;5074693;28;20484;-82
2024/01/07 02:37:18;;;;;;;19.38;17.60;;;0.20;99.90;;;;;;5064295;28;20051;-82
2024/01/07 02:39:44;;;;;;;17.38;15.93;;;0.20;99.90;;;;;;5059038;28;20094;-83
2024/01/07 02:42:10;;;;;;;17.10;15.75;;;0.20;99.90;;;;;;5071707;28;20079;-83
2024/01/07 02:44:36;;;;;;;16.45;15.23;;;0.20;99.90;;;;;;5081371;28;20075;-83
2024/01/07 02:47:01;;;;;;;21.20;19.35;;;0.20;99.90;;;;;;5061828;28;20048;-83
2024/01/07 02:49:28;;;;;;;20.52;18.60;;;0.20;99.90;;;;;;5080254;28;20055;-83
2024/01/07 02:51:54;;;;;;;18.95;17.20;;;0.20;99.90;;;;;;5105808;28;20043;-83
2024/01/07 02:54:19;;;;;;;17.73;16.15;;;0.20;99.90;;;;;;5057864;28;20055;-82
2024/01/07 02:56:45;;;;;;;16.98;15.57;;;0.20;99.90;;;;;;5073080;28;20050;-82
2024/01/07 02:59:11;;;;;;;20.40;18.58;;;0.20;99.90;;;;;;5096217;28;20526;-83
2024/01/07 03:01:40;;;;;;;17.10;15.60;;;0.20;99.90;;;;;;5059281;28;20437;-81
2024/01/07 03:04:07;;;;;;;18.00;16.58;;;0.20;99.90;;;;;;5106642;27;20523;-83
2024/01/07 03:06:33;;;;;;;19.25;17.55;;;0.20;99.90;;;;;;5076108;28;20068;-82
2024/01/07 03:08:59;;;;;;;17.88;16.73;;;0.20;99.90;;;;;;5092135;28;20722;-83
2024/01/07 03:11:24;;;;;;;18.23;16.58;;;0.20;99.90;;;;;;5080339;28;20031;-82
2024/01/07 03:13:50;;;;;;;15.77;14.63;;;0.30;99.90;;;;;;5065736;28;20028;-82
2024/01/07 03:16:23;;;;;;;17.17;15.68;;;0.30;99.90;;;;;;5063298;28;20046;-82
2024/01/07 03:18:48;;;;;;;17.40;16.10;;;0.30;99.90;;;;;;5066024;28;20066;-82
2024/01/07 03:21:24;;;;;;;17.90;16.30;;;0.20;99.90;;;;;;5095913;28;20511;-82
2024/01/07 03:23:50;;;;;;;17.70;16.40;;;0.20;99.90;;;;;;5070734;28;20857;-82
2024/01/07 03:26:17;;;;;;;16.58;15.40;;;0.30;99.90;;;;;;5063400;28;20048;-82
2024/01/07 03:28:43;;;;;;;17.25;15.77;;;0.30;99.90;;;;;;5076962;28;20128;-82
2024/01/07 03:31:12;;;;;;;16.25;14.85;;;0.30;99.90;;;;;;5058262;28;20068;-82
2024/01/07 03:33:38;;;;;;;18.40;16.95;;;0.30;99.90;;;;;;5060594;28;20047;-82
2024/01/07 03:36:08;;;;;;;17.00;15.73;;;0.30;99.90;;;;;;5074616;28;20397;-82
2024/01/07 03:38:35;;;;;;;17.15;15.95;;;0.30;99.90;;;;;;5056616;28;20127;-81
2024/01/07 03:41:00;;;;;;;16.70;15.30;;;0.30;99.90;;;;;;5060437;28;20036;-83
2024/01/07 03:43:26;;;;;;;14.60;13.55;;;0.30;99.90;;;;;;5049256;28;20078;-82
2024/01/07 03:45:51;;;;;;;14.70;13.68;;;0.30;99.90;;;;;;5056642;28;20044;-82
2024/01/07 03:48:17;;;;;;;18.63;16.95;;;0.30;99.90;;;;;;5077527;28;20073;-82
2024/01/07 03:50:43;;;;;;;17.02;15.40;;;0.30;99.90;;;;;;5077032;28;20102;-82
2024/01/07 03:53:09;;;;;;;15.50;14.40;;;0.30;99.90;;;;;;5104039;28;20544;-82
2024/01/07 03:55:34;;;;;;;15.90;14.70;;;0.30;99.90;;;;;;5086417;28;20036;-82
2024/01/07 03:58:00;;;;;;;17.25;15.75;;;0.30;99.90;;;;;;5103404;28;20085;-82
2024/01/07 04:00:26;;;;;;;17.55;16.02;;;0.30;99.90;;;;;;5052058;28;20047;-83
2024/01/07 04:02:51;;;;;;;13.43;12.52;;;0.30;99.90;;;;;;5058392;28;20127;-81
2024/01/07 04:05:17;;;;;;;15.55;14.32;;;0.30;99.90;;;;;;5056027;28;20108;-82
2024/01/07 04:07:42;;;;;;;14.52;13.48;;;0.30;99.90;;;;;;5078985;28;20082;-82
2024/01/07 04:10:08;;;;;;;15.15;14.18;;;0.30;99.90;;;;;;5061888;28;20039;-82
2024/01/07 04:12:34;;;;;;;16.55;15.25;;;0.30;99.90;;;;;;5076412;28;20123;-82
2024/01/07 04:14:59;;;;;;;14.32;13.32;;;0.30;99.90;;;;;;5064773;28;20036;-82
2024/01/07 04:17:25;;;;;;;14.45;13.52;;;0.30;99.90;;;;;;5065647;28;20091;-82
2024/01/07 04:19:52;;;;;;;14.93;13.80;;;0.20;99.90;;;;;;5080201;28;20119;-82
2024/01/07 04:22:17;;;;;;;15.13;14.13;;;0.20;99.90;;;;;;5080303;28;20040;-82
2024/01/07 04:24:43;;;;;;;14.30;13.23;;;0.20;99.90;;;;;;5063010;28;20097;-82
2024/01/07 04:27:09;;;;;;;13.40;12.60;;;0.30;99.90;;;;;;5073949;28;20061;-82
2024/01/07 04:29:35;;;;;;;14.10;13.13;;;0.30;99.90;;;;;;5077676;28;20039;-82
2024/01/07 04:32:01;;;;;;;14.02;13.02;;;0.30;99.90;;;;;;5078927;28;20113;-82
2024/01/07 04:34:26;;;;;;;14.27;13.38;;;0.30;99.90;;;;;;5059033;28;20043;-82
2024/01/07 04:36:52;;;;;;;14.02;13.10;;;0.30;99.90;;;;;;5061793;28;20135;-82
2024/01/07 04:39:17;;;;;;;14.90;13.82;;;0.30;99.90;;;;;;5093419;28;20097;-82
2024/01/07 04:41:43;;;;;;;14.43;13.45;;;0.40;99.90;;;;;;5075376;28;20565;-82
2024/01/07 04:44:08;;;;;;;14.43;13.43;;;0.40;99.90;;;;;;5078054;28;20035;-82
2024/01/07 04:46:35;;;;;;;13.25;12.25;;;0.40;99.90;;;;;;5073765;28;20063;-82
2024/01/07 04:49:01;;;;;;;13.23;12.32;;;0.40;99.90;;;;;;5066488;28;20377;-82
2024/01/07 04:51:27;;;;;;;18.70;17.15;;;0.40;99.90;;;;;;5061396;28;20041;-81
2024/01/07 04:53:52;;;;;;;13.32;12.40;;;0.30;99.90;;;;;;5071579;28;20416;-82
2024/01/07 04:56:18;;;;;;;13.07;12.13;;;0.40;99.90;;;;;;5084385;28;20411;-82
2024/01/07 04:58:43;;;;;;;12.93;12.02;;;0.50;99.90;;;;;;5053988;28;20052;-82
2024/01/07 05:01:09;;;;;;;14.25;13.20;;;0.50;99.90;;;;;;5060041;28;20039;-82
2024/01/07 05:03:35;;;;;;;13.63;12.63;;;0.50;99.90;;;;;;5075729;28;20048;-82
2024/01/07 05:06:01;;;;;;;17.05;15.95;;;0.50;99.90;;;;;;5058984;28;20039;-82
2024/01/07 05:08:28;;;;;;;59.13;52.83;;;0.50;99.90;;;;;;5058147;28;20043;-81
2024/01/07 05:10:53;;;;;;;12.70;11.90;;;0.50;99.90;;;;;;5097819;28;20126;-82
2024/01/07 05:13:19;;;;;;;14.30;13.40;;;0.50;99.90;;;;;;5081851;28;20134;-82
2024/01/07 05:15:46;;;;;;;13.23;12.27;;;0.40;99.90;;;;;;5074334;28;20510;-81
2024/01/07 05:18:12;;;;;;;14.18;12.82;;;0.40;99.90;;;;;;5082760;28;20276;-81
2024/01/07 05:20:38;;;;;;;14.57;13.38;;;0.40;99.90;;;;;;5095526;28;20113;-82
2024/01/07 05:23:04;;;;;;;14.85;13.45;;;0.40;99.90;;;;;;5082988;28;20084;-81
2024/01/07 05:25:29;;;;;;;13.65;12.77;;;0.40;99.90;;;;;;5071743;28;20035;-82
2024/01/07 05:27:55;;;;;;;14.13;13.00;;;0.40;99.90;;;;;;5087371;28;20032;-82
2024/01/07 05:30:22;;;;;;;13.65;12.55;;;0.50;99.90;;;;;;5081536;28;20126;-82
2024/01/07 05:32:47;;;;;;;13.43;12.63;;;0.50;99.90;;;;;;5060346;28;20032;-82
2024/01/07 05:35:13;;;;;;;12.85;12.05;;;0.50;99.90;;;;;;5064210;28;20035;-82
2024/01/07 05:37:38;;;;;;;15.13;13.63;;;0.40;99.90;;;;;;5092366;28;20563;-82
2024/01/07 05:40:06;;;;;;;14.35;13.32;;;0.50;99.90;;;;;;5079010;28;20031;-81
2024/01/07 05:42:31;;;;;;;13.70;12.70;;;0.50;99.90;;;;;;5085168;28;20056;-82
2024/01/07 05:44:57;;;;;;;15.10;14.05;;;0.50;99.90;;;;;;5067708;28;20039;-82
2024/01/07 05:47:22;;;;;;;13.30;12.20;;;0.50;99.90;;;;;;5088617;28;20069;-82
2024/01/07 05:49:48;;;;;;;14.07;12.90;;;0.50;99.90;;;;;;5057158;28;20031;-81
2024/01/07 05:52:14;;;;;;;14.05;13.07;;;0.50;99.90;;;;;;5085674;28;20035;-82
2024/01/07 05:54:40;;;;;;;14.45;13.55;;;0.40;99.90;;;;;;5090348;28;20036;-81
2024/01/07 05:57:05;;;;;;;13.43;12.40;;;0.50;99.90;;;;;;5064775;28;20068;-83
2024/01/07 05:59:31;;;;;;;13.93;12.70;;;0.60;99.90;;;;;;5072725;28;20449;-82
2024/01/07 06:01:59;;;;;;;13.77;12.85;;;0.60;99.90;;;;;;5073977;28;20120;-82
2024/01/07 06:04:25;;;;;;;13.88;12.77;;;0.60;99.90;;;;;;5059462;28;20050;-82
2024/01/07 06:06:51;;;;;;;13.25;12.45;;;0.50;99.90;;;;;;5075516;28;20400;-82
2024/01/07 06:09:16;;;;;;;12.85;11.90;;;0.50;99.90;;;;;;5059073;28;20136;-82
2024/01/07 06:11:42;;;;;;;13.23;12.25;;;0.50;99.90;;;;;;5060654;28;20032;-81
2024/01/07 06:14:08;;;;;;;16.60;15.65;;;0.60;99.90;;;;;;5063805;28;20047;-81
2024/01/07 06:16:33;;;;;;;12.70;11.70;;;0.70;99.90;;;;;;5075770;28;20112;-82
2024/01/07 06:18:59;;;;;;;13.48;12.27;;;0.70;99.90;;;;;;5059790;28;20518;-82
2024/01/07 06:21:24;;;;;;;12.20;11.45;;;0.70;99.90;;;;;;5077856;28;20046;-81
2024/01/07 06:23:50;;;;;;;14.85;13.98;;;0.60;99.90;;;;;;5083089;28;20056;-82
2024/01/07 06:26:16;;;;;;;12.52;11.63;;;0.60;99.90;;;;;;5064871;28;20050;-81
2024/01/07 06:28:41;;;;;;;13.43;12.52;;;0.70;99.90;;;;;;5086443;28;20511;-82
2024/01/07 06:31:07;;;;;;;13.48;12.68;;;0.60;99.90;;;;;;5067421;28;20505;-82
2024/01/07 06:33:33;;;;;;;13.38;12.48;;;0.70;99.90;;;;;;5066634;28;20121;-82
2024/01/07 06:35:59;;;;;;;12.57;11.57;;;0.70;99.90;;;;;;5075422;28;20035;-81
2024/01/07 06:38:25;;;;;;;12.52;11.50;;;0.60;99.90;;;;;;5078443;28;20044;-82
2024/01/07 06:40:51;;;;;;;11.98;11.27;;;0.60;99.90;;;;;;5077346;28;20074;-83
2024/01/07 06:43:16;;;;;;;13.32;12.52;;;0.70;99.90;;;;;;5072352;28;20043;-82
2024/01/07 06:45:43;;;;;;;12.50;11.70;;;0.70;99.90;;;;;;5079209;28;20137;-81
2024/01/07 06:48:09;;;;;;;12.25;11.45;;;0.70;99.90;;;;;;5077328;28;20081;-82
2024/01/07 06:50:35;;;;;;;12.80;11.90;;;0.70;99.90;;;;;;5098984;28;20035;-81
2024/01/07 06:53:00;;;;;;;11.98;11.00;;;0.60;99.90;;;;;;5056870;28;20885;-82
2024/01/07 06:55:26;;;;;;;13.75;12.65;;;0.60;99.90;;;;;;5078888;28;20046;-82
2024/01/07 06:57:51;;;;;;;10.80;10.20;;;0.60;99.90;;;;;;5076690;28;20046;-81
2024/01/07 07:00:17;;;;;;;11.45;10.75;;;0.60;99.90;;;;;;5056650;28;20093;-81
2024/01/07 07:02:43;;;;;;;11.63;10.65;;;0.60;99.90;;;;;;5072227;28;20514;-82
2024/01/07 07:05:09;;;;;;;11.25;10.45;;;0.60;99.90;;;;;;5090271;28;20044;-82
2024/01/07 07:07:35;;;;;;;12.23;11.52;;;0.70;99.90;;;;;;5062614;28;20170;-82
2024/01/07 07:10:00;;;;;;;11.75;10.95;;;0.60;99.90;;;;;;5064092;28;20062;-82
2024/01/07 07:12:26;;;;;;;11.45;10.70;;;0.60;99.90;;;;;;5076177;28;20495;-82
2024/01/07 07:14:51;;;;;;;10.55;9.93;;;0.60;99.90;;;;;;5080329;28;20134;-82
2024/01/07 07:17:17;;;;;;;13.48;12.65;;;0.60;99.90;;;;;;5055969;28;20126;-82
2024/01/07 07:19:43;;;;;;;10.88;10.20;;;0.50;99.90;;;;;;5086687;28;20069;-82
2024/01/07 07:22:08;;;;;;;10.93;10.25;;;0.60;99.90;;;;;;5078926;28;20038;-81
2024/01/07 07:24:34;;;;;;;10.60;9.98;;;0.60;99.90;;;;;;5054870;28;20178;-83
2024/01/07 07:26:59;;;;;;;12.35;11.65;;;0.60;99.90;;;;;;5060869;28;20036;-81
2024/01/07 07:29:25;;;;;;;11.27;10.48;;;0.60;99.90;;;;;;5064904;28;20043;-82
2024/01/07 07:31:50;;;;;;;11.63;10.93;;;0.50;99.90;;;;;;5077257;28;20043;-82
2024/01/07 07:34:16;;;;;;;11.90;11.20;;;0.50;99.90;;;;;;5073926;28;20044;-81
2024/01/07 07:36:43;;;;;;;11.63;10.82;;;0.40;99.90;;;;;;5055950;28;20051;-82
2024/01/07 07:39:09;;;;;;;11.82;11.07;;;0.40;99.90;;;;;;5074934;28;20631;-81
2024/01/07 07:41:34;;;;;;;12.38;11.63;;;0.30;99.90;;;;;;5092635;28;20040;-82
2024/01/07 07:44:00;;;;;;;15.23;14.27;;;0.30;99.90;;;;;;5076907;28;20097;-82
2024/01/07 07:46:26;;;;;;;10.85;10.15;;;0.30;99.90;;;;;;5061811;28;20548;-81
2024/01/07 07:48:51;;;;;;;15.15;14.25;;;0.20;99.90;;;;;;5091641;28;20122;-82
2024/01/07 07:51:17;;;;;;;11.20;10.50;;;0.20;99.90;;;;;;5073282;28;20146;-82
2024/01/07 07:53:43;;;;;;;11.05;10.35;;;0.20;99.90;;;;;;5087594;28;20039;-82
2024/01/07 07:56:09;;;;;;;12.25;11.55;;;0.10;99.90;;;;;;5091509;28;20415;-81
2024/01/07 07:58:34;;;;;;;11.73;11.02;;;0.00;99.90;;;;;;5074683;28;20040;-81
2024/01/07 08:01:00;;;;;;;12.38;11.48;;;0.00;99.90;;;;;;5074044;28;20071;-81
2024/01/07 08:03:26;;;;;;;12.70;11.60;;;0.00;99.90;;;;;;5075978;28;20044;-81
2024/01/07 08:05:52;;;;;;;12.45;11.57;;;0.00;99.90;;;;;;5061855;28;20096;-81
2024/01/07 08:08:18;;;;;;;11.70;10.90;;;0.00;99.90;;;;;;5094679;28;20406;-81
2024/01/07 08:10:43;;;;;;;11.88;11.07;;;0.00;99.90;;;;;;5094964;28;20078;-81
2024/01/07 08:13:09;;;;;;;11.98;11.18;;;0.00;99.90;;;;;;5083877;28;20501;-81
2024/01/07 08:15:37;;;;;;;13.65;12.65;;;-0.10;99.90;;;;;;5058006;28;20117;-81
2024/01/07 08:18:03;;;;;;;13.15;12.23;;;-0.10;99.90;;;;;;5070661;28;20067;-81
2024/01/07 08:20:29;;;;;;;12.40;11.70;;;-0.10;99.90;;;;;;5084388;28;20117;-81
2024/01/07 08:22:54;;;;;;;12.43;11.63;;;-0.10;99.90;;;;;;5101330;28;20487;-81
2024/01/07 08:25:20;;;;;;;11.57;10.82;;;0.00;99.90;;;;;;5066431;28;20086;-81
2024/01/07 08:27:46;;;;;;;12.55;11.75;;;0.10;99.90;;;;;;5058708;28;20075;-81
2024/01/07 08:30:13;;;;;;;11.95;11.10;;;0.10;99.90;;;;;;5087164;28;20044;-81
2024/01/07 08:32:39;;;;;;;12.95;11.88;;;0.20;99.90;;;;;;5096671;28;20032;-81
2024/01/07 08:35:05;;;;;;;12.82;11.82;;;0.10;99.90;;;;;;5075694;28;20071;-81
2024/01/07 08:37:31;;;;;;;11.90;11.20;;;0.10;99.90;;;;;;5078680;28;20499;-81
2024/01/07 08:39:57;;;;;;;12.55;11.65;;;0.10;99.90;;;;;;5097133;28;20123;-82
2024/01/07 08:42:23;;;;;;;11.93;11.00;;;0.20;99.90;;;;;;5059363;28;20499;-82
2024/01/07 08:44:49;;;;;;;13.27;12.27;;;0.20;99.90;;;;;;5079050;28;20036;-81
2024/01/07 08:47:15;;;;;;;11.55;10.75;;;0.30;99.90;;;;;;5062481;28;20051;-81
2024/01/07 08:49:40;;;;;;;13.40;12.60;;;0.40;99.90;;;;;;5069956;28;20488;-82
2024/01/07 08:52:06;;;;;;;11.35;10.60;;;0.40;99.90;;;;;;5073768;28;20115;-82
2024/01/07 08:54:33;;;;;;;12.05;11.25;;;0.50;99.90;;;;;;5066786;28;20044;-82
2024/01/07 08:56:58;;;;;;;11.63;10.93;;;0.50;99.90;;;;;;5082909;28;20040;-81
2024/01/07 08:59:24;;;;;;;11.20;10.60;;;0.50;99.90;;;;;;5094144;28;20131;-81
2024/01/07 09:01:50;;;;;;;13.00;12.07;;;0.50;99.90;;;;;;5073115;28;20067;-83
2024/01/07 09:04:17;;;;;;;14.60;13.65;;;0.60;99.90;;;;;;5058484;28;20658;-82
2024/01/07 09:06:44;;;;;;;11.80;11.00;;;0.60;99.90;;;;;;5061336;28;20137;-81
2024/01/07 09:09:09;;;;;;;12.35;11.45;;;0.70;99.90;;;;;;5080949;28;21507;-82
2024/01/07 09:11:36;;;;;;;13.23;12.25;;;0.70;99.90;;;;;;5081037;28;20118;-81
2024/01/07 09:14:03;;;;;;;12.48;11.45;;;0.70;99.90;;;;;;5084401;28;20503;-81
2024/01/07 09:16:31;;;;;;;12.93;11.55;;;0.70;99.90;;;;;;5063400;28;20126;-81
2024/01/07 09:18:57;;;;;;;11.20;10.50;;;0.70;99.90;;;;;;5083045;28;20085;-81
2024/01/07 09:21:23;;;;;;;13.60;12.80;;;0.80;99.90;;;;;;5063435;28;20489;-82
2024/01/07 09:23:49;;;;;;;12.25;11.55;;;0.70;99.90;;;;;;5101296;28;20084;-82
2024/01/07 09:26:15;;;;;;;12.88;12.07;;;0.80;99.90;;;;;;5072773;28;20395;-82
2024/01/07 09:28:42;;;;;;;12.00;11.15;;;0.80;99.90;;;;;;5061406;28;20036;-81
2024/01/07 09:31:08;;;;;;;13.63;12.55;;;0.80;99.90;;;;;;5068123;28;20040;-81
2024/01/07 09:33:34;;;;;;;13.50;12.63;;;0.90;99.90;;;;;;5076640;28;20047;-80
2024/01/07 09:35:59;;;;;;;13.27;12.45;;;0.90;99.90;;;;;;5090175;28;20538;-81
2024/01/07 09:38:25;;;;;;;11.82;11.13;;;0.90;99.90;;;;;;5078312;28;20043;-81
2024/01/07 09:40:53;;;;;;;10.80;10.20;;;0.90;99.90;;;;;;5078326;28;20048;-81
2024/01/07 09:43:19;;;;;;;11.48;10.75;;;0.90;99.90;;;;;;5074908;28;20067;-81
2024/01/07 09:45:51;;;;;;;11.20;10.50;;;0.90;99.90;;;;;;5087371;28;20082;-81
2024/01/07 09:48:17;;;;;;;11.50;10.70;;;1.00;99.90;;;;;;5104914;28;20101;-81
2024/01/07 09:50:43;;;;;;;11.07;10.38;;;1.00;99.90;;;;;;5105697;28;20113;-81
2024/01/07 09:53:18;;;;;;;12.07;11.25;;;1.00;99.90;;;;;;5067760;28;20388;-80
2024/01/07 09:56:07;;;;;;;10.82;10.05;;;1.00;99.90;;;;;;5102479;28;20040;-81
2024/01/07 09:58:32;;;;;;;11.25;10.45;;;1.00;99.90;;;;;;5062258;28;20048;-80
2024/01/07 10:00:59;;;;;;;11.38;10.68;;;1.10;99.90;;;;;;5058503;28;20051;-81
2024/01/07 10:03:25;;;;;;;10.43;9.82;;;1.10;99.90;;;;;;5062060;28;20044;-81
2024/01/07 10:05:51;;;;;;;11.05;10.07;;;1.10;99.90;;;;;;5075498;28;20043;-81
2024/01/07 10:08:17;;;;;;;10.10;9.50;;;1.10;99.90;;;;;;5078691;28;20048;-81
2024/01/07 10:10:43;;;;;;;10.80;10.20;;;1.10;99.90;;;;;;5097600;28;20214;-81
2024/01/07 10:13:09;;;;;;;11.43;10.63;;;1.10;99.90;;;;;;5079176;28;20032;-81
2024/01/07 10:15:35;;;;;;;11.65;10.85;;;1.10;99.90;;;;;;5095521;28;20089;-81
2024/01/07 10:18:05;;;;;;;11.15;10.45;;;1.10;99.90;;;;;;5087587;28;20071;-80
2024/01/07 10:20:35;;;;;;;12.15;11.27;;;1.10;99.90;;;;;;5064961;28;20044;-81
2024/01/07 10:23:02;;;;;;;11.85;10.98;;;1.10;99.90;;;;;;5083531;28;20509;-81
2024/01/07 10:25:32;;;;;;;11.55;10.85;;;1.10;99.90;;;;;;5086749;28;20043;-81
2024/01/07 10:28:01;;;;;;;11.50;10.57;;;1.20;99.90;;;;;;5083789;28;20047;-82
2024/01/07 10:30:28;;;;;;;10.70;10.10;;;1.20;99.90;;;;;;5059461;28;20081;-81
2024/01/07 10:32:58;;;;;;;12.85;12.05;;;1.20;99.90;;;;;;5063770;28;20032;-81
2024/01/07 10:35:32;;;;;;;12.07;11.07;;;1.20;99.90;;;;;;5068892;28;20046;-81
2024/01/07 10:37:57;;;;;;;;;;;1.20;99.90;;;;;;5049314;28;20043;-81
2024/01/07 10:40:25;;;;;;;13.77;12.38;;;1.30;99.90;;;;;;5062681;28;19919;-81
2024/01/07 10:42:52;;;;;;;12.35;11.45;;;1.30;99.90;;;;;;5057817;28;20040;-81
2024/01/07 10:45:18;;;;;;;11.95;10.98;;;1.40;99.90;;;;;;5085051;28;20055;-81
2024/01/07 10:47:49;;;;;;;12.15;11.45;;;1.40;99.90;;;;;;5069280;28;20048;-82
2024/01/07 10:50:17;;;;;;;10.68;9.88;;;1.40;99.90;;;;;;5069831;28;20043;-81
2024/01/07 10:52:43;;;;;;;12.15;11.05;;;1.40;99.90;;;;;;5086789;28;20044;-81
2024/01/07 10:55:10;;;;;;;11.43;10.75;;;1.50;99.90;;;;;;5104312;28;20593;-81
2024/01/07 10:57:47;;;;;;;11.40;10.70;;;1.50;99.90;;;;;;5058473;28;20127;-82
2024/01/07 11:00:22;;;;;;;11.40;10.60;;;1.50;99.90;;;;;;5075147;28;20075;-81
2024/01/07 11:03:18;;;;;;;10.48;9.77;;;1.70;99.90;;;;;;5079413;28;20047;-82
2024/01/07 11:05:52;;;;;;;10.40;9.70;;;1.90;99.90;;;;;;5050797;28;20052;-83
2024/01/07 11:08:17;;;;;;;;;;;2.10;99.90;;;;;;5079668;28;20032;-83
2024/01/07 11:10:55;;;;;;;9.60;8.90;;;2.20;99.90;;;;;;5093014;28;19927;-83
2024/01/07 11:13:38;;;;;;;10.18;9.52;;;2.50;99.90;;;;;;5081969;28;20852;-81
2024/01/07 11:16:11;;;;;;;11.27;10.52;;;2.50;99.90;;;;;;5070156;28;20070;-82
2024/01/07 11:18:54;;;;;;;9.90;9.30;;;2.50;99.90;;;;;;5090600;28;20119;-82
2024/01/07 11:21:25;;;;;;;10.65;9.85;;;2.40;99.90;;;;;;5091851;28;20558;-83
2024/01/07 11:23:52;;;;;;;10.32;9.45;;;2.30;99.90;;;;;;5067142;28;20055;-84
2024/01/07 11:26:23;;;;;;;10.15;9.35;;;2.40;99.90;;;;;;5083052;28;20134;-82
2024/01/07 11:28:53;;;;;;;11.02;10.23;;;2.30;99.90;;;;;;5125560;27;20677;-83
2024/01/07 11:31:21;;;;;;;10.43;9.77;;;2.40;99.90;;;;;;5063642;28;20040;-82
2024/01/07 11:33:51;;;;;;;10.18;9.57;;;2.40;99.90;;;;;;5113075;28;20063;-82
2024/01/07 11:36:17;;;;;;;9.98;9.32;;;2.50;99.90;;;;;;5075291;28;20048;-83
2024/01/07 11:38:50;;;;;;;9.60;9.00;;;2.50;99.90;;;;;;5086449;28;20040;-82
2024/01/07 11:41:17;;;;;;;10.18;9.38;;;2.60;99.90;;;;;;5079575;28;20046;-83
2024/01/07 11:43:59;;;;;;;9.23;8.68;;;2.70;99.90;;;;;;5079207;28;20047;-83
2024/01/07 11:46:25;;;;;;;10.27;9.55;;;2.70;99.90;;;;;;5092224;28;20048;-83
2024/01/07 11:48:58;;;;;;;10.18;9.57;;;2.80;99.90;;;;;;5081183;28;20058;-83
2024/01/07 11:51:30;;;;;;;10.13;9.32;;;2.80;99.90;;;;;;5105475;28;20044;-82
2024/01/07 11:53:57;;;;;;;9.85;9.13;;;2.70;99.90;;;;;;5072037;28;20040;-83
2024/01/07 11:56:24;;;;;;;10.85;10.00;;;2.70;99.90;;;;;;5055153;28;20047;-83
2024/01/07 11:58:50;;;;;;;11.25;10.15;;;2.40;99.90;;;;;;5091093;28;20044;-83
2024/01/07 12:01:16;;;;;;;10.38;9.68;;;2.10;99.90;;;;;;5060766;28;20130;-82
2024/01/07 12:03:44;;;;;;;11.38;10.45;;;2.00;99.90;;;;;;5091291;28;20044;-83
2024/01/07 12:06:15;;;;;;;11.38;10.45;;;1.90;99.90;;;;;;5095560;28;20057;-83
2024/01/07 12:08:43;;;;;;;11.65;10.75;;;1.90;99.90;;;;;;5069187;28;20131;-83
2024/01/07 12:11:11;;;;;;;11.93;10.80;;;2.00;99.90;;;;;;5071593;28;20099;-84
2024/01/07 12:13:37;;;;;;;10.55;9.73;;;2.10;99.90;;;;;;5064063;28;20113;-82
2024/01/07 12:16:04;;;;;;;10.85;10.05;;;2.20;99.90;;;;;;5074163;28;20040;-82
2024/01/07 12:18:29;;;;;;;11.10;10.20;;;2.20;99.90;;;;;;5081025;28;20119;-82
2024/01/07 12:20:57;;;;;;;10.55;9.73;;;2.40;99.90;;;;;;5096959;28;20551;-83
2024/01/07 12:23:24;;;;;;;10.60;9.63;;;2.50;99.90;;;;;;5087287;28;20056;-83
2024/01/07 12:25:50;;;;;;;10.10;9.10;;;2.60;99.90;;;;;;5068809;28;20043;-83
2024/01/07 12:28:18;;;;;;;9.70;8.93;;;2.60;99.90;;;;;;5082314;28;20062;-82
2024/01/07 12:30:44;;;;;;;10.68;9.90;;;2.60;99.90;;;;;;5056039;28;20450;-81
2024/01/07 12:33:09;;;;;;;10.27;9.38;;;2.70;99.90;;;;;;5074858;28;20032;-82
2024/01/07 12:35:35;;;;;;;10.65;9.75;;;2.50;99.90;;;;;;5058707;28;20411;-83